Sigfox identifier Datetime Temperature Humidity SNR
003B7641 2018-10-09 07:39:09 21.2 39 17
003B7641 2018-10-09 01:07:03 21.2 38 16.9
003B7641 2018-10-09 00:01:42 21.2 37 16.9
003B7641 2018-10-08 22:56:26 21.2 37 16.8
003B7641 2018-10-08 20:45:45 21.2 37 16.8
003B7641 2018-10-08 18:35:13 21.3 37 16.8
003B7641 2018-10-08 16:24:36 21.2 36 16.8
003B7641 2018-10-08 14:14:07 21 36 16.8
003B7641 2018-10-08 13:08:48 21 35 16.9
003B7641 2018-10-08 10:58:06 20.7 34 17
003B7641 2018-10-08 08:47:27 20.5 35 17
003B7641 2018-10-08 07:42:07 20.6 35 9.9
003B7641 2018-10-08 06:36:51 20.6 36 10.2
003B7641 2018-10-08 05:31:30 20.6 36 10.5
003B7641 2018-10-08 04:26:08 20.6 36 10
003B7641 2018-10-08 03:20:45 20.6 37 10.1
003B7641 2018-10-08 02:15:27 20.6 37 17
003B7641 2018-10-07 19:43:11 20.8 38 17
003B7641 2018-10-07 11:00:17 20.8 39 17
003B7641 2018-10-07 04:28:18 20.8 40 17.2
003B7641 2018-10-07 02:17:37 20.9 40 17.5
003B7641 2018-10-06 23:01:32 21 40 17.7
003B7641 2018-10-06 21:56:08 21 40 17.9
003B7641 2018-10-06 17:34:48 21 40 18
003B7641 2018-10-06 14:18:43 21 40 18.2
003B7641 2018-10-06 12:07:57 21 40 18.4
003B7641 2018-10-06 05:35:44 21.2 41 18.6
003B7641 2018-10-06 02:19:33 21.3 42 18.8
003B7641 2018-10-06 00:08:43 21.4 42 19
003B7641 2018-10-05 23:03:19 21.4 43 19.3
003B7641 2018-10-05 21:58:01 21.6 43 19.5
003B7641 2018-10-05 20:52:36 21.7 43 19.8
003B7641 2018-10-05 18:42:00 21.9 43 20.1
003B7641 2018-10-05 16:31:12 21.9 43 20.3
003B7641 2018-10-05 15:25:47 21.9 42 20.7
003B7641 2018-10-05 14:20:27 21.8 41 21
003B7641 2018-10-05 13:15:04 21.6 39 21.5
003B7641 2018-10-05 08:53:28 21 34 21.9
003B7641 2018-10-05 05:37:16 20.8 34 22.3
003B7641 2018-10-05 04:31:55 20.9 34 23
003B7641 2018-10-05 03:26:34 21 34 23.8
003B7641 2018-10-05 02:21:08 21 34 16.7
003B7641 2018-10-05 01:15:43 21 34 17.8
003B7641 2018-10-04 21:59:30 21.2 35 19.4
003B7641 2018-10-04 17:37:33 21.2 37 19.8
003B7641 2018-10-04 16:32:01 20.5 47 0